createdAt,value
2018-09-21T00:00:00.561Z,2.17
2018-09-21T00:02:29.033Z,2.07
2018-09-21T00:04:57.673Z,2.57
2018-09-21T00:07:27.088Z,2.20
2018-09-21T00:09:55.866Z,2.20
2018-09-21T00:12:24.795Z,2.00
2018-09-21T00:14:53.309Z,2.23
2018-09-21T00:17:22.113Z,2.73
2018-09-21T00:19:50.793Z,2.90
2018-09-21T00:22:19.261Z,2.70
2018-09-21T00:24:47.714Z,2.17
2018-09-21T00:27:16.447Z,1.97
2018-09-21T00:29:45.132Z,2.00
2018-09-21T00:32:14.594Z,2.33
2018-09-21T00:34:43.507Z,1.83
2018-09-21T00:37:12.650Z,2.20
2018-09-21T00:39:41.137Z,2.50
2018-09-21T00:42:10.098Z,2.03
2018-09-21T00:44:38.569Z,2.27
2018-09-21T00:47:07.078Z,2.43
2018-09-21T00:49:35.858Z,2.07
2018-09-21T00:52:04.389Z,2.00
2018-09-21T00:54:32.856Z,2.17
2018-09-21T00:57:01.889Z,2.30
2018-09-21T00:59:30.379Z,2.13
2018-09-21T01:01:59.049Z,2.07
2018-09-21T01:04:32.256Z,2.67
2018-09-21T01:07:00.782Z,2.00
2018-09-21T01:09:29.989Z,2.00
2018-09-21T01:11:59.144Z,2.13
2018-09-21T01:14:27.610Z,2.13
2018-09-21T01:16:56.318Z,1.90
2018-09-21T01:19:24.806Z,1.97
2018-09-21T01:21:53.301Z,1.77
2018-09-21T01:24:21.873Z,3.23
2018-09-21T01:26:50.503Z,1.97
2018-09-21T01:29:18.988Z,2.30
2018-09-21T01:31:48.382Z,2.40
2018-09-21T01:34:17.011Z,2.63
2018-09-21T01:36:45.570Z,2.57
2018-09-21T01:39:14.397Z,2.20
2018-09-21T01:41:42.960Z,1.60
2018-09-21T01:44:11.401Z,1.97
2018-09-21T01:46:40.168Z,1.80
2018-09-21T01:49:09.209Z,2.23
2018-09-21T01:51:37.675Z,2.00
2018-09-21T01:54:06.568Z,1.90
2018-09-21T01:56:35.066Z,1.73
2018-09-21T01:59:03.580Z,1.70
2018-09-21T02:01:32.281Z,1.90
2018-09-21T02:04:00.837Z,2.27
2018-09-21T02:06:29.347Z,1.87
2018-09-21T02:08:58.013Z,1.63
2018-09-21T02:11:26.581Z,2.63
2018-09-21T02:13:55.207Z,2.10
2018-09-21T02:16:24.187Z,2.40
2018-09-21T02:18:52.677Z,2.00
2018-09-21T02:21:21.208Z,1.90
2018-09-21T02:23:50.158Z,1.90
2018-09-21T02:26:18.717Z,2.10
2018-09-21T02:28:47.606Z,2.23
2018-09-21T02:31:16.502Z,2.50
2018-09-21T02:33:44.969Z,1.93
2018-09-21T02:36:13.462Z,2.00
2018-09-21T02:38:42.357Z,2.13
2018-09-21T02:41:10.848Z,2.00
2018-09-21T02:43:39.325Z,2.20
2018-09-21T02:46:07.921Z,2.27
2018-09-21T02:48:36.624Z,2.40
2018-09-21T02:51:05.169Z,2.07
2018-09-21T02:53:34.174Z,2.07
2018-09-21T02:56:02.670Z,1.87
2018-09-21T02:58:31.113Z,2.17
2018-09-21T03:00:59.878Z,2.40
2018-09-21T03:03:28.317Z,2.40
2018-09-21T03:05:56.813Z,2.80
2018-09-21T03:08:25.457Z,2.27
2018-09-21T03:10:54.050Z,2.30
2018-09-21T03:13:22.565Z,1.80
2018-09-21T03:15:51.600Z,1.77
2018-09-21T03:18:20.077Z,2.03
2018-09-21T03:20:48.560Z,2.10
2018-09-21T03:23:17.574Z,1.93
2018-09-21T03:25:46.060Z,2.17
2018-09-21T03:28:14.529Z,1.90
2018-09-21T03:30:43.840Z,2.17
2018-09-21T03:33:12.325Z,2.30
2018-09-21T03:35:42.121Z,2.30
2018-09-21T03:38:10.824Z,2.20
2018-09-21T03:40:39.708Z,2.10
2018-09-21T03:43:09.024Z,2.50
2018-09-21T03:45:37.995Z,2.80
2018-09-21T03:48:06.994Z,2.67
2018-09-21T03:50:36.118Z,2.37
2018-09-21T03:53:04.662Z,2.70
2018-09-21T03:55:33.200Z,2.30
2018-09-21T03:58:01.709Z,2.53
2018-09-21T04:00:30.420Z,2.10
2018-09-21T04:02:58.900Z,2.63
2018-09-21T04:05:27.359Z,2.47
2018-09-21T04:07:56.550Z,2.47
2018-09-21T04:10:25.130Z,2.10
2018-09-21T04:12:53.614Z,2.63
2018-09-21T04:15:22.151Z,2.43
2018-09-21T04:17:50.911Z,2.57
2018-09-21T04:20:19.382Z,2.63
2018-09-21T04:22:58.167Z,2.80
2018-09-21T04:25:27.312Z,3.17
2018-09-21T04:27:56.175Z,2.97
2018-09-21T04:30:25.218Z,3.17
2018-09-21T04:32:53.674Z,3.33
2018-09-21T04:35:22.454Z,3.10
2018-09-21T04:37:51.274Z,3.50
2018-09-21T04:40:19.803Z,3.37
2018-09-21T04:42:48.398Z,3.77
2018-09-21T04:45:16.885Z,3.70
2018-09-21T04:47:45.313Z,3.37
2018-09-21T04:50:13.937Z,3.60
2018-09-21T04:52:42.594Z,3.77
2018-09-21T04:55:11.161Z,3.77
2018-09-21T04:57:40.103Z,3.97
2018-09-21T05:00:09.454Z,4.10
2018-09-21T05:02:38.002Z,4.67
2018-09-21T05:05:06.998Z,3.97
2018-09-21T05:07:35.506Z,4.50
2018-09-21T05:10:04.045Z,4.70
2018-09-21T05:12:32.569Z,4.60
2018-09-21T05:15:01.040Z,5.43
2018-09-21T05:17:29.509Z,5.50
2018-09-21T05:19:58.218Z,5.47
2018-09-21T05:22:26.789Z,4.57
2018-09-21T05:24:55.238Z,5.33
2018-09-21T05:27:24.262Z,5.60
2018-09-21T05:29:52.814Z,6.50
2018-09-21T05:32:21.411Z,6.43
2018-09-21T05:34:50.164Z,6.37
2018-09-21T05:37:18.566Z,6.13
2018-09-21T05:39:46.997Z,6.47
2018-09-21T05:42:15.831Z,6.90
2018-09-21T05:44:44.454Z,7.30
2018-09-21T05:47:13.032Z,7.33
2018-09-21T05:49:41.505Z,7.33
2018-09-21T05:52:10.889Z,7.10
2018-09-21T05:54:39.346Z,7.20
2018-09-21T05:57:08.247Z,7.43
2018-09-21T05:59:36.790Z,7.10
2018-09-21T06:02:05.314Z,7.83
2018-09-21T06:04:34.302Z,7.30
2018-09-21T06:07:02.899Z,7.53
2018-09-21T06:09:31.378Z,7.80
2018-09-21T06:11:59.949Z,8.37
2018-09-21T06:14:28.427Z,8.70
2018-09-21T06:16:56.941Z,8.93
2018-09-21T06:19:26.378Z,8.03
2018-09-21T06:21:55.322Z,8.10
2018-09-21T06:24:24.639Z,8.73
2018-09-21T06:26:54.178Z,7.93
2018-09-21T06:29:22.740Z,8.30
2018-09-21T06:31:51.631Z,8.90
2018-09-21T06:34:20.570Z,9.30
2018-09-21T06:36:49.339Z,8.47
2018-09-21T06:39:17.838Z,7.97
2018-09-21T06:41:46.404Z,8.57
2018-09-21T06:44:14.919Z,8.20
2018-09-21T06:46:43.426Z,7.70
2018-09-21T06:49:12.128Z,7.83
2018-09-21T06:51:40.818Z,8.17
2018-09-21T06:54:09.322Z,8.57
2018-09-21T06:56:38.174Z,7.63
2018-09-21T06:59:06.709Z,7.77
2018-09-21T07:01:35.261Z,7.70
2018-09-21T07:04:03.895Z,8.23
2018-09-21T07:06:32.566Z,7.93
2018-09-21T07:09:01.267Z,7.60
2018-09-21T07:11:30.040Z,7.80
2018-09-21T07:13:58.914Z,7.20
2018-09-21T07:16:27.424Z,7.30
2018-09-21T07:18:56.402Z,7.00
2018-09-21T07:21:24.903Z,7.77
2018-09-21T07:23:53.687Z,6.17
2018-09-21T07:26:22.687Z,6.43
2018-09-21T07:28:51.365Z,6.63
2018-09-21T07:31:19.939Z,6.90
2018-09-21T07:33:51.987Z,6.30
2018-09-21T07:36:21.109Z,6.43
2018-09-21T07:38:50.086Z,6.77
2018-09-21T07:41:18.666Z,7.53
2018-09-21T07:43:47.773Z,6.43
2018-09-21T07:46:16.550Z,6.17
2018-09-21T07:48:45.083Z,6.77
2018-09-21T07:51:13.631Z,6.03
2018-09-21T07:53:42.197Z,6.12
2018-09-21T07:56:10.715Z,6.13
2018-09-21T07:58:39.178Z,5.43
2018-09-21T08:01:07.935Z,6.30
2018-09-21T08:03:36.388Z,5.53
2018-09-21T08:06:04.937Z,6.42
2018-09-21T08:08:33.793Z,5.50
2018-09-21T08:11:02.260Z,6.27
2018-09-21T08:13:30.740Z,5.93
2018-09-21T08:15:59.805Z,6.00
2018-09-21T08:18:28.283Z,6.20
2018-09-21T08:20:57.852Z,6.40
2018-09-21T08:23:26.822Z,5.47
2018-09-21T08:25:55.755Z,5.80
2018-09-21T08:28:24.295Z,5.33
2018-09-21T08:30:53.675Z,5.70
2018-09-21T08:33:22.935Z,7.17
2018-09-21T08:35:51.489Z,5.80
2018-09-21T08:38:21.125Z,5.55
2018-09-21T08:40:49.649Z,6.05
2018-09-21T08:43:18.209Z,5.50
2018-09-21T08:45:47.147Z,5.70
2018-09-21T08:48:15.845Z,6.12
2018-09-21T08:50:44.334Z,6.03
2018-09-21T08:53:13.105Z,5.42
2018-09-21T08:55:47.882Z,5.58
2018-09-21T08:58:16.713Z,5.55
2018-09-21T09:00:45.157Z,5.45
2018-09-21T09:03:13.755Z,5.37
2018-09-21T09:05:42.745Z,7.40
2018-09-21T09:08:12.509Z,6.80
2018-09-21T09:10:41.183Z,8.73
2018-09-21T09:13:09.957Z,17.20
2018-09-21T09:15:38.501Z,17.82
2018-09-21T09:18:06.765Z,8.50
2018-09-21T09:20:35.391Z,15.65
2018-09-21T09:23:03.918Z,15.75
2018-09-21T09:25:32.699Z,6.78
2018-09-21T09:28:01.554Z,5.40
2018-09-21T09:30:29.999Z,8.50
2018-09-21T09:32:59.400Z,15.35
2018-09-21T09:35:28.217Z,10.90
2018-09-21T09:37:57.778Z,6.50
2018-09-21T09:40:27.262Z,7.08
2018-09-21T09:42:56.981Z,5.70
2018-09-21T09:45:25.950Z,9.60
2018-09-21T09:47:54.481Z,7.12
2018-09-21T09:50:23.403Z,11.53
2018-09-21T09:52:52.012Z,7.20
2018-09-21T09:55:20.479Z,9.30
2018-09-21T09:57:49.069Z,7.75
2018-09-21T10:00:21.698Z,7.12
2018-09-21T10:02:50.421Z,8.98
2018-09-21T10:05:19.238Z,7.42
2018-09-21T10:07:47.769Z,7.95
2018-09-21T10:10:16.832Z,7.70
2018-09-21T10:12:45.362Z,6.70
2018-09-21T10:15:13.864Z,8.83
2018-09-21T10:17:42.533Z,7.53
2018-09-21T10:20:11.073Z,7.35
2018-09-21T10:22:39.777Z,10.93
2018-09-21T10:25:08.712Z,7.15
2018-09-21T10:27:37.609Z,7.15
2018-09-21T10:30:06.086Z,7.67
2018-09-21T10:32:35.059Z,14.73
2018-09-21T10:35:03.835Z,7.78
2018-09-21T10:37:32.424Z,6.67
2018-09-21T10:40:01.183Z,8.28
2018-09-21T10:42:29.753Z,7.40
2018-09-21T10:44:58.265Z,7.75
2018-09-21T10:47:28.781Z,8.20
2018-09-21T10:49:57.299Z,13.95
2018-09-21T10:52:26.163Z,6.33
2018-09-21T10:54:55.603Z,7.83
2018-09-21T10:57:24.099Z,6.05
2018-09-21T10:59:52.593Z,6.40
2018-09-21T11:02:21.438Z,5.95
2018-09-21T11:04:49.966Z,6.47
2018-09-21T11:07:18.504Z,7.47
2018-09-21T11:09:47.074Z,10.05
2018-09-21T11:12:15.645Z,7.17
2018-09-21T11:14:44.161Z,7.33
2018-09-21T11:17:12.843Z,7.50
2018-09-21T11:19:41.302Z,6.90
2018-09-21T11:22:09.789Z,6.78
2018-09-21T11:24:38.885Z,5.83
2018-09-21T11:27:07.355Z,5.80
2018-09-21T11:29:36.005Z,6.17
2018-09-21T11:32:05.048Z,5.78
2018-09-21T11:34:33.525Z,5.80
2018-09-21T11:37:02.574Z,6.12
2018-09-21T11:39:31.339Z,6.20
2018-09-21T11:41:59.778Z,6.22
2018-09-21T11:44:29.497Z,5.58
2018-09-21T11:46:58.367Z,5.28
2018-09-21T11:49:26.771Z,5.83
2018-09-21T11:51:55.257Z,5.78
2018-09-21T11:54:24.709Z,5.83
2018-09-21T11:56:53.179Z,5.53
2018-09-21T11:59:21.724Z,6.00
2018-09-21T12:01:50.473Z,6.00
2018-09-21T12:04:19.480Z,6.10
2018-09-21T12:06:48.001Z,5.53
2018-09-21T12:09:16.758Z,6.22
2018-09-21T12:11:45.233Z,5.92
2018-09-21T12:14:13.736Z,5.70
2018-09-21T12:16:42.530Z,5.37
2018-09-21T12:19:11.208Z,5.33
2018-09-21T12:21:39.670Z,5.75
2018-09-21T12:24:08.592Z,5.28
2018-09-21T12:26:37.089Z,5.90
2018-09-21T12:29:05.588Z,5.85
2018-09-21T12:31:34.315Z,5.70
2018-09-21T12:34:03.163Z,6.00
2018-09-21T12:36:31.933Z,5.60
2018-09-21T12:39:00.933Z,5.40
2018-09-21T12:41:29.464Z,5.53
2018-09-21T12:43:57.949Z,6.53
2018-09-21T12:46:28.054Z,6.28
2018-09-21T12:49:05.585Z,7.08
2018-09-21T12:51:34.850Z,6.97
2018-09-21T12:54:03.301Z,5.70
2018-09-21T12:56:32.075Z,5.50
2018-09-21T12:59:00.582Z,6.20
2018-09-21T13:01:29.054Z,5.25
2018-09-21T13:03:57.780Z,5.33
2018-09-21T13:06:27.399Z,5.95
2018-09-21T13:08:56.439Z,4.90
2018-09-21T13:11:31.521Z,5.03
2018-09-21T13:13:59.987Z,6.03
2018-09-21T13:16:28.446Z,5.58
2018-09-21T13:18:57.021Z,4.83
2018-09-21T13:21:25.554Z,5.50
2018-09-21T13:23:54.102Z,5.80
2018-09-21T13:26:22.870Z,5.50
2018-09-21T13:28:51.342Z,6.28
2018-09-21T13:31:19.985Z,5.90
2018-09-21T13:33:49.093Z,6.78
2018-09-21T13:36:17.551Z,6.33
2018-09-21T13:38:45.991Z,6.22
2018-09-21T13:41:14.974Z,6.72
2018-09-21T13:43:43.496Z,7.00
2018-09-21T13:46:11.998Z,6.78
2018-09-21T13:48:41.133Z,7.15
2018-09-21T13:51:09.613Z,7.67
2018-09-21T13:53:38.099Z,7.00
2018-09-21T13:56:07.555Z,7.17
2018-09-21T13:58:36.069Z,8.08
2018-09-21T14:01:04.521Z,6.67
2018-09-21T14:03:33.321Z,7.62
2018-09-21T14:06:05.313Z,8.48
2018-09-21T14:08:34.602Z,7.80
2018-09-21T14:11:03.265Z,8.40
2018-09-21T14:13:31.736Z,8.10
2018-09-21T14:16:00.310Z,8.85
2018-09-21T14:18:28.939Z,9.33
2018-09-21T14:20:57.446Z,8.75
2018-09-21T14:23:25.957Z,8.73
2018-09-21T14:25:54.843Z,8.43
2018-09-21T14:28:23.337Z,9.15
2018-09-21T14:30:51.918Z,10.55
2018-09-21T14:33:20.893Z,8.98
2018-09-21T14:35:49.472Z,10.18
2018-09-21T14:38:17.931Z,13.48
2018-09-21T14:40:46.569Z,13.03
2018-09-21T14:43:15.482Z,10.10
2018-09-21T14:45:43.977Z,9.18
2018-09-21T14:48:12.613Z,11.65
2018-09-21T14:50:41.365Z,9.13
2018-09-21T14:53:09.898Z,9.53
2018-09-21T14:55:38.431Z,8.30
2018-09-21T14:58:07.041Z,10.25
2018-09-21T15:00:35.661Z,8.55
2018-09-21T15:03:04.257Z,8.68
2018-09-21T15:05:32.753Z,8.20
2018-09-21T15:08:01.237Z,8.15
2018-09-21T15:10:30.158Z,8.10
2018-09-21T15:12:58.622Z,8.45
2018-09-21T15:15:27.165Z,7.83
2018-09-21T15:17:56.709Z,8.68
2018-09-21T15:20:25.298Z,8.10
2018-09-21T15:22:53.803Z,7.92
2018-09-21T15:25:22.982Z,8.50
2018-09-21T15:27:51.451Z,8.20
2018-09-21T15:30:20.072Z,7.37
2018-09-21T15:32:48.934Z,8.00
2018-09-21T15:35:17.402Z,8.30
2018-09-21T15:37:45.953Z,7.87
2018-09-21T15:40:14.706Z,8.25
2018-09-21T15:42:43.584Z,8.65
2018-09-21T15:45:12.622Z,8.43
2018-09-21T15:47:41.206Z,7.50
2018-09-21T15:50:10.032Z,8.85
2018-09-21T15:52:38.686Z,9.18
2018-09-21T15:55:07.425Z,9.18
2018-09-21T15:57:35.993Z,7.55
2018-09-21T16:00:04.900Z,8.48
2018-09-21T16:02:33.831Z,8.35
2018-09-21T16:05:02.306Z,8.63
2018-09-21T16:07:30.841Z,8.65
2018-09-21T16:09:59.400Z,8.60
2018-09-21T16:12:27.901Z,8.55
2018-09-21T16:14:57.047Z,7.75
2018-09-21T16:17:26.222Z,8.35
2018-09-21T16:19:54.705Z,8.58
2018-09-21T16:22:23.276Z,8.43
2018-09-21T16:24:51.789Z,7.92
2018-09-21T16:27:20.269Z,8.45
2018-09-21T16:29:48.738Z,7.97
2018-09-21T16:32:17.247Z,8.60
2018-09-21T16:34:45.703Z,8.58
2018-09-21T16:37:14.218Z,7.80
2018-09-21T16:39:43.221Z,7.58
2018-09-21T16:42:11.657Z,7.58
2018-09-21T16:44:40.351Z,7.15
2018-09-21T16:47:08.982Z,8.05
2018-09-21T16:49:37.523Z,7.65
2018-09-21T16:52:06.052Z,7.12
2018-09-21T16:54:34.934Z,7.25
2018-09-21T16:57:03.397Z,7.87
2018-09-21T16:59:31.878Z,6.85
2018-09-21T17:02:00.705Z,7.22
2018-09-21T17:04:29.245Z,8.90
2018-09-21T17:06:57.734Z,6.92
2018-09-21T17:09:27.078Z,7.62
2018-09-21T17:11:55.569Z,8.83
2018-09-21T17:14:24.561Z,9.68
2018-09-21T17:16:53.415Z,8.30
2018-09-21T17:19:22.146Z,7.58
2018-09-21T17:21:50.938Z,8.70
2018-09-21T17:24:19.619Z,8.33
2018-09-21T17:26:48.278Z,8.48
2018-09-21T17:29:16.777Z,9.38
2018-09-21T17:31:46.188Z,8.58
2018-09-21T17:34:14.654Z,9.15
2018-09-21T17:36:43.115Z,8.95
2018-09-21T17:39:12.909Z,8.93
2018-09-21T17:41:41.793Z,9.13
2018-09-21T17:44:10.469Z,9.00
2018-09-21T17:46:39.266Z,9.55
2018-09-21T17:49:08.312Z,8.55
2018-09-21T17:51:36.961Z,10.25
2018-09-21T17:54:05.491Z,9.43
2018-09-21T17:56:34.097Z,8.73
2018-09-21T17:59:02.582Z,8.90
2018-09-21T18:01:31.193Z,9.30
2018-09-21T18:03:59.654Z,9.08
2018-09-21T18:06:28.184Z,8.75
2018-09-21T18:08:57.876Z,9.03
2018-09-21T18:11:27.049Z,9.50
2018-09-21T18:13:56.435Z,9.85
2018-09-21T18:16:25.078Z,8.68
2018-09-21T18:18:53.544Z,10.25
2018-09-21T18:21:22.029Z,10.00
2018-09-21T18:23:50.553Z,10.68
2018-09-21T18:26:19.034Z,12.85
2018-09-21T18:28:47.514Z,11.93
2018-09-21T18:31:16.081Z,12.63
2018-09-21T18:33:44.589Z,6.55
2018-09-21T18:36:13.071Z,9.77
2018-09-21T18:38:41.627Z,3.67
2018-09-21T18:41:10.167Z,2.20
2018-09-21T18:43:38.779Z,1.33
2018-09-21T18:46:07.645Z,2.03
2018-09-21T18:48:36.101Z,1.70
2018-09-21T18:51:05.011Z,2.17
2018-09-21T18:53:33.680Z,2.03
2018-09-21T18:56:02.152Z,2.20
2018-09-21T18:58:30.793Z,2.20
2018-09-21T19:00:59.525Z,2.50
2018-09-21T19:03:27.998Z,1.93
2018-09-21T19:05:57.022Z,2.20
2018-09-21T19:08:26.724Z,2.53
2018-09-21T19:10:55.193Z,2.43
2018-09-21T19:13:24.414Z,2.40
2018-09-21T19:15:53.079Z,2.60
2018-09-21T19:18:21.531Z,1.93
2018-09-21T19:20:50.019Z,2.07
2018-09-21T19:23:18.936Z,1.83
2018-09-21T19:25:47.411Z,1.70
2018-09-21T19:28:16.595Z,1.93
2018-09-21T19:30:45.486Z,2.20
2018-09-21T19:33:13.970Z,1.90
2018-09-21T19:35:42.780Z,2.13
2018-09-21T19:38:11.548Z,1.63
2018-09-21T19:40:40.088Z,2.07
2018-09-21T19:43:08.671Z,1.90
2018-09-21T19:45:37.410Z,2.17
2018-09-21T19:48:06.093Z,2.50
2018-09-21T19:50:34.562Z,1.60
2018-09-21T19:53:04.547Z,1.80
2018-09-21T19:55:33.087Z,2.00
2018-09-21T19:58:01.597Z,1.70
2018-09-21T20:00:31.041Z,1.50
2018-09-21T20:02:59.744Z,1.47
2018-09-21T20:05:28.272Z,1.60
2018-09-21T20:07:58.328Z,1.53
2018-09-21T20:10:27.081Z,1.67
2018-09-21T20:12:55.601Z,1.20
2018-09-21T20:15:24.614Z,1.50
2018-09-21T20:17:53.105Z,1.77
2018-09-21T20:20:21.745Z,1.70
2018-09-21T20:22:50.745Z,1.90
2018-09-21T20:25:19.270Z,1.53
2018-09-21T20:27:47.721Z,1.80
2018-09-21T20:30:21.406Z,1.70
2018-09-21T20:32:55.340Z,2.03
2018-09-21T20:35:24.862Z,1.60
2018-09-21T20:37:53.669Z,1.60
2018-09-21T20:40:22.378Z,1.53
2018-09-21T20:42:50.909Z,1.90
2018-09-21T20:45:19.397Z,1.97
2018-09-21T20:47:47.921Z,1.80
2018-09-21T20:50:16.656Z,1.80
2018-09-21T20:52:45.119Z,1.90
2018-09-21T20:55:14.022Z,1.97
2018-09-21T20:57:42.794Z,1.60
2018-09-21T21:00:11.345Z,1.80
2018-09-21T21:02:40.032Z,2.23
2018-09-21T21:05:09.201Z,1.13
2018-09-21T21:07:37.654Z,1.57
2018-09-21T21:10:06.372Z,1.80
2018-09-21T21:12:35.213Z,1.57
2018-09-21T21:15:03.753Z,1.53
2018-09-21T21:17:32.714Z,1.93
2018-09-21T21:20:01.582Z,1.80
2018-09-21T21:22:30.062Z,1.73
2018-09-21T21:24:58.882Z,1.97
2018-09-21T21:27:27.925Z,1.93
2018-09-21T21:29:56.978Z,1.50
2018-09-21T21:32:26.071Z,2.00
2018-09-21T21:34:54.844Z,1.83
2018-09-21T21:37:23.307Z,1.63
2018-09-21T21:39:51.896Z,1.60
2018-09-21T21:42:20.685Z,1.80
2018-09-21T21:44:50.162Z,1.97
2018-09-21T21:47:18.680Z,2.10
2018-09-21T21:49:47.259Z,1.80
2018-09-21T21:52:15.765Z,2.10
2018-09-21T21:54:44.329Z,1.70
2018-09-21T21:57:13.253Z,1.80
2018-09-21T21:59:42.044Z,1.73
2018-09-21T22:02:14.075Z,1.80
2018-09-21T22:04:43.109Z,1.87
2018-09-21T22:07:12.770Z,1.83
2018-09-21T22:09:41.292Z,2.10
2018-09-21T22:12:14.953Z,1.80
2018-09-21T22:14:43.626Z,2.13
2018-09-21T22:17:12.139Z,2.27
2018-09-21T22:19:40.797Z,2.57
2018-09-21T22:22:09.452Z,2.30
2018-09-21T22:24:37.954Z,2.23
2018-09-21T22:27:06.451Z,1.90
2018-09-21T22:29:35.013Z,1.90
2018-09-21T22:32:03.529Z,1.93
2018-09-21T22:34:32.026Z,1.60
2018-09-21T22:37:01.192Z,2.80
2018-09-21T22:39:29.705Z,2.10
2018-09-21T22:41:58.229Z,2.03
2018-09-21T22:44:28.151Z,2.23
2018-09-21T22:46:56.640Z,1.63
2018-09-21T22:49:25.881Z,2.03
2018-09-21T22:51:54.887Z,2.23
2018-09-21T22:54:23.344Z,2.63
2018-09-21T22:56:51.840Z,1.93
2018-09-21T22:59:21.137Z,2.20
2018-09-21T23:01:49.645Z,2.10
2018-09-21T23:04:18.131Z,2.50
2018-09-21T23:06:47.266Z,2.37
2018-09-21T23:09:15.717Z,1.70
2018-09-21T23:11:44.254Z,2.40
2018-09-21T23:14:13.039Z,2.53
2018-09-21T23:16:41.528Z,1.80
2018-09-21T23:19:10.560Z,1.90
2018-09-21T23:21:39.441Z,1.90
2018-09-21T23:24:07.890Z,2.03
2018-09-21T23:26:36.767Z,2.27
2018-09-21T23:29:05.394Z,2.67
2018-09-21T23:31:33.960Z,2.30
2018-09-21T23:34:02.489Z,2.10
2018-09-21T23:36:31.056Z,2.37
2018-09-21T23:38:59.565Z,2.30
2018-09-21T23:41:28.042Z,2.20
2018-09-21T23:43:56.597Z,2.03
2018-09-21T23:46:25.645Z,2.37
2018-09-21T23:48:54.336Z,2.43
2018-09-21T23:51:23.255Z,1.90
2018-09-21T23:53:51.795Z,2.20
2018-09-21T23:56:20.313Z,2.23
2018-09-21T23:58:49.397Z,2.40
